Time;durP1;ratioP1;P1;durP2;ratioP2;P2;SDS_P1;SDS_P2;PMS_P1;PMS_P2;Temp;Humidity;BMP_temperature;BMP_pressure;BME280_temperature;BME280_humidity;BME280_pressure;Samples;Min_cycle;Max_cycle;Signal;HPM_P1;HPM_P2
2021/06/11 00:02:19;;;;;;;10.80;9.83;;;16.40;99.90;;;;;;5001529;28;20183;-60
2021/06/11 00:04:44;;;;;;;11.17;10.10;;;16.60;99.90;;;;;;5002102;28;20183;-60
2021/06/11 00:07:10;;;;;;;10.43;9.47;;;16.70;99.90;;;;;;4996033;28;20203;-61
2021/06/11 00:09:35;;;;;;;10.73;9.70;;;16.50;99.90;;;;;;4999561;28;20692;-60
2021/06/11 00:12:02;;;;;;;10.70;9.80;;;16.70;99.90;;;;;;5006456;28;20216;-61
2021/06/11 00:14:28;;;;;;;10.68;9.68;;;16.60;99.90;;;;;;4998046;28;20814;-61
2021/06/11 00:16:54;;;;;;;10.83;9.87;;;16.40;99.90;;;;;;4989097;28;20257;-60
2021/06/11 00:19:20;;;;;;;10.73;9.80;;;16.30;99.90;;;;;;4994070;28;20219;-61
2021/06/11 00:21:45;;;;;;;11.30;10.10;;;16.30;99.90;;;;;;4990252;28;20195;-60
2021/06/11 00:24:11;;;;;;;10.30;9.40;;;16.50;99.90;;;;;;4992603;28;20438;-61
2021/06/11 00:26:36;;;;;;;16.00;9.50;;;16.60;99.90;;;;;;4989122;28;20968;-61
2021/06/11 00:29:02;;;;;;;10.30;9.17;;;16.30;99.90;;;;;;4988320;28;20188;-61
2021/06/11 00:31:28;;;;;;;10.70;9.70;;;16.50;99.90;;;;;;4989276;28;20188;-60
2021/06/11 00:33:53;;;;;;;11.50;10.40;;;16.10;99.90;;;;;;4989459;28;20207;-61
2021/06/11 00:36:19;;;;;;;12.40;10.87;;;16.30;99.90;;;;;;4990200;28;20203;-61
2021/06/11 00:38:45;;;;;;;10.20;9.30;;;16.40;99.90;;;;;;4989790;28;20303;-60
2021/06/11 00:41:11;;;;;;;10.47;9.50;;;16.40;99.90;;;;;;4989283;28;20192;-61
2021/06/11 00:43:36;;;;;;;11.03;10.00;;;16.20;99.90;;;;;;4989628;28;20184;-60
2021/06/11 00:46:02;;;;;;;10.63;9.67;;;16.50;99.90;;;;;;4994298;28;20490;-61
2021/06/11 00:48:28;;;;;;;11.15;10.05;;;16.30;99.90;;;;;;4990569;28;20282;-61
2021/06/11 00:50:54;;;;;;;10.87;9.93;;;16.40;99.90;;;;;;4992319;28;20270;-61
2021/06/11 00:53:19;;;;;;;11.00;9.90;;;16.50;99.90;;;;;;4989266;28;20238;-61
2021/06/11 00:55:45;;;;;;;10.60;9.63;;;16.20;99.90;;;;;;4993034;28;20221;-61
2021/06/11 00:58:16;;;;;;;9.93;9.03;;;16.30;99.90;;;;;;4987183;28;20220;-61
2021/06/11 01:00:42;;;;;;;11.60;10.50;;;16.00;99.90;;;;;;4990616;28;20441;-60
2021/06/11 01:03:09;;;;;;;10.90;9.90;;;16.20;99.90;;;;;;4989704;28;20191;-60
2021/06/11 01:05:44;;;;;;;11.07;10.13;;;16.50;99.90;;;;;;5002776;28;20175;-61
2021/06/11 01:08:11;;;;;;;11.15;10.10;;;16.50;99.90;;;;;;4989618;28;20211;-61
2021/06/11 01:10:42;;;;;;;9.90;9.00;;;16.30;99.90;;;;;;4996787;28;20190;-61
2021/06/11 01:13:08;;;;;;;9.73;8.85;;;16.20;99.90;;;;;;5000365;28;20191;-61
2021/06/11 01:15:34;;;;;;;11.03;10.00;;;16.20;99.90;;;;;;4998969;28;20550;-61
2021/06/11 01:18:00;;;;;;;11.43;10.40;;;16.50;99.90;;;;;;5003695;28;20446;-61
2021/06/11 01:20:26;;;;;;;10.90;9.83;;;16.20;99.90;;;;;;4993393;28;20546;-60
2021/06/11 01:23:19;;;;;;;11.37;10.27;;;16.20;99.90;;;;;;4990808;28;20188;-61
2021/06/11 01:26:14;;;;;;;11.00;9.90;;;16.20;99.90;;;;;;4992764;28;20226;-61
2021/06/11 01:28:41;;;;;;;10.02;9.13;;;16.30;99.90;;;;;;4991543;28;20246;-61
2021/06/11 01:31:07;;;;;;;10.95;9.98;;;16.30;99.90;;;;;;4991109;28;20187;-61
2021/06/11 01:33:35;;;;;;;11.57;10.47;;;16.20;99.90;;;;;;5001484;28;20202;-61
2021/06/11 01:36:03;;;;;;;11.52;10.27;;;16.20;99.90;;;;;;5000157;28;20846;-62
2021/06/11 01:38:37;;;;;;;11.75;10.65;;;16.40;99.90;;;;;;4995965;28;20199;-62
2021/06/11 01:41:04;;;;;;;11.77;10.68;;;16.10;99.90;;;;;;4992819;28;20183;-62
2021/06/11 01:43:31;;;;;;;11.00;10.02;;;16.10;99.90;;;;;;4998414;28;20175;-62
2021/06/11 01:45:57;;;;;;;11.27;10.13;;;16.30;99.90;;;;;;4992360;28;20715;-62
2021/06/11 01:48:24;;;;;;;10.77;9.80;;;16.20;99.90;;;;;;4992512;28;20211;-61
2021/06/11 01:50:51;;;;;;;11.73;10.63;;;16.10;99.90;;;;;;5000269;28;20186;-61
2021/06/11 01:53:19;;;;;;;11.52;10.43;;;16.30;99.90;;;;;;5007182;28;20542;-61
2021/06/11 01:55:47;;;;;;;11.93;10.82;;;16.00;99.90;;;;;;5000536;28;20180;-62
2021/06/11 01:58:17;;;;;;;11.88;10.30;;;16.10;99.90;;;;;;4988395;28;20623;-60
2021/06/11 02:00:45;;;;;;;10.63;9.63;;;16.20;99.90;;;;;;4993144;28;20215;-60
2021/06/11 02:03:13;;;;;;;11.68;10.63;;;16.10;99.90;;;;;;4998507;28;20658;-61
2021/06/11 02:05:39;;;;;;;12.77;11.57;;;16.10;99.90;;;;;;4995333;28;20191;-60
2021/06/11 02:08:05;;;;;;;11.25;10.23;;;16.30;99.90;;;;;;4999072;28;20190;-61
2021/06/11 02:10:32;;;;;;;11.88;10.77;;;16.30;99.90;;;;;;5002363;28;20256;-61
2021/06/11 02:12:58;;;;;;;11.82;10.73;;;16.30;99.90;;;;;;5003957;28;20195;-61
2021/06/11 02:15:26;;;;;;;12.30;11.20;;;16.10;99.90;;;;;;5008820;28;20535;-60
2021/06/11 02:17:53;;;;;;;12.40;11.20;;;16.00;99.90;;;;;;4992850;28;20354;-60
2021/06/11 02:20:22;;;;;;;12.52;11.32;;;15.90;99.90;;;;;;4999454;28;20222;-60
2021/06/11 02:22:48;;;;;;;13.65;12.23;;;16.10;99.90;;;;;;4995333;28;20701;-61
2021/06/11 02:25:18;;;;;;;11.93;10.83;;;16.00;99.90;;;;;;4991271;28;20187;-61
2021/06/11 02:27:44;;;;;;;12.57;11.38;;;15.90;99.90;;;;;;4991507;28;20746;-61
2021/06/11 02:30:12;;;;;;;11.65;10.48;;;16.10;99.90;;;;;;4992388;28;20207;-61
2021/06/11 02:32:39;;;;;;;11.88;10.77;;;16.00;99.90;;;;;;4991347;28;20230;-61
2021/06/11 02:35:08;;;;;;;13.20;11.90;;;15.80;99.90;;;;;;4996720;28;20241;-60
2021/06/11 02:37:34;;;;;;;12.65;11.45;;;16.00;99.90;;;;;;5002304;28;20202;-60
2021/06/11 02:40:00;;;;;;;12.30;11.20;;;16.00;99.90;;;;;;4991158;28;20558;-61
2021/06/11 02:42:28;;;;;;;11.32;10.23;;;16.00;99.90;;;;;;4994929;28;20179;-60
2021/06/11 02:44:57;;;;;;;13.30;10.68;;;16.10;99.90;;;;;;4991343;28;20191;-60
2021/06/11 02:47:29;;;;;;;11.95;10.85;;;15.90;99.90;;;;;;4989894;28;20234;-60
2021/06/11 02:50:09;;;;;;;12.35;10.32;;;16.00;99.90;;;;;;4990998;28;20238;-60
2021/06/11 02:52:39;;;;;;;11.68;10.57;;;15.80;99.90;;;;;;5001567;28;20190;-61
2021/06/11 02:55:06;;;;;;;11.05;10.05;;;16.20;99.90;;;;;;5001918;28;20228;-61
2021/06/11 02:57:57;;;;;;;11.52;10.40;;;16.10;99.90;;;;;;4990958;28;20253;-61
2021/06/11 03:00:27;;;;;;;11.82;10.73;;;16.00;99.90;;;;;;4998320;28;20187;-60
2021/06/11 03:02:58;;;;;;;12.55;11.18;;;15.90;99.90;;;;;;5007798;28;20179;-61
2021/06/11 03:05:24;;;;;;;12.98;11.68;;;16.00;99.90;;;;;;4999023;28;20179;-60
2021/06/11 03:07:54;;;;;;;12.52;11.32;;;15.60;99.90;;;;;;4992313;28;21056;-60
2021/06/11 03:10:29;;;;;;;11.75;10.55;;;15.70;99.90;;;;;;5005997;28;20194;-60
2021/06/11 03:12:57;;;;;;;12.93;11.57;;;15.60;99.90;;;;;;4996417;28;20266;-61
2021/06/11 03:15:27;;;;;;;12.38;11.07;;;15.80;99.90;;;;;;4993231;28;20187;-61
2021/06/11 03:17:59;;;;;;;12.20;11.10;;;15.70;99.90;;;;;;4994931;28;20552;-60
2021/06/11 03:20:31;;;;;;;12.48;11.27;;;15.80;99.90;;;;;;4991239;28;20275;-60
2021/06/11 03:23:02;;;;;;;12.80;11.52;;;16.20;99.90;;;;;;5005357;28;20214;-60
2021/06/11 03:25:36;;;;;;;12.50;10.80;;;16.10;99.90;;;;;;4990211;28;20176;-60
2021/06/11 03:28:12;;;;;;;12.48;11.30;;;15.80;99.90;;;;;;4991502;28;20190;-60
2021/06/11 03:30:45;;;;;;;12.40;11.30;;;15.80;99.90;;;;;;4984869;28;20562;-61
2021/06/11 03:33:13;;;;;;;12.90;11.07;;;15.90;99.90;;;;;;4990044;28;20207;-61
2021/06/11 03:35:45;;;;;;;11.13;9.93;;;15.80;99.90;;;;;;5003180;28;20253;-61
2021/06/11 03:38:19;;;;;;;11.85;10.73;;;15.60;99.90;;;;;;5007968;28;20202;-61
2021/06/11 03:40:48;;;;;;;13.27;11.88;;;15.50;99.90;;;;;;4999458;28;20578;-60
2021/06/11 03:43:14;;;;;;;12.50;10.85;;;15.80;99.90;;;;;;5003593;28;20191;-60
2021/06/11 03:45:42;;;;;;;12.05;10.90;;;15.90;99.90;;;;;;4990573;28;20185;-59
2021/06/11 03:48:11;;;;;;;13.10;11.90;;;16.00;99.90;;;;;;4990810;28;20193;-60
2021/06/11 03:50:39;;;;;;;12.52;11.43;;;15.60;99.90;;;;;;5000551;28;20735;-60
2021/06/11 03:53:06;;;;;;;14.05;12.63;;;15.70;99.90;;;;;;5000726;28;20645;-60
2021/06/11 03:55:41;;;;;;;12.93;11.82;;;15.60;99.90;;;;;;5004006;28;20660;-60
2021/06/11 03:58:17;;;;;;;12.23;11.02;;;15.70;99.90;;;;;;4999926;28;20207;-60
2021/06/11 04:00:44;;;;;;;12.85;11.02;;;15.60;99.90;;;;;;4996084;28;20184;-60
2021/06/11 04:03:10;;;;;;;11.85;10.75;;;15.80;99.90;;;;;;4990166;28;20176;-60
2021/06/11 04:05:36;;;;;;;12.50;11.30;;;15.70;99.90;;;;;;5001929;28;20178;-60
2021/06/11 04:08:06;;;;;;;12.95;11.70;;;15.70;99.90;;;;;;4989542;28;20621;-60
2021/06/11 04:10:43;;;;;;;12.98;11.73;;;15.90;99.90;;;;;;4998626;28;20198;-60
2021/06/11 04:13:18;;;;;;;13.48;12.27;;;15.70;99.90;;;;;;4992268;28;20184;-60
2021/06/11 04:15:48;;;;;;;13.80;11.68;;;15.80;99.90;;;;;;4993401;28;20187;-61
2021/06/11 04:18:19;;;;;;;12.77;11.57;;;15.90;99.90;;;;;;5000623;28;20245;-60
2021/06/11 04:20:50;;;;;;;13.07;11.88;;;15.80;99.90;;;;;;4996345;28;20183;-60
2021/06/11 04:23:23;;;;;;;13.35;12.15;;;15.90;99.90;;;;;;5000201;28;20710;-60
2021/06/11 04:25:50;;;;;;;13.50;12.20;;;16.10;99.90;;;;;;4991713;28;20217;-60
2021/06/11 04:28:17;;;;;;;13.00;11.73;;;16.10;99.90;;;;;;4994650;28;20554;-61
2021/06/11 04:30:44;;;;;;;13.65;12.45;;;16.10;99.90;;;;;;4989312;28;20188;-61
2021/06/11 04:33:39;;;;;;;12.52;11.43;;;16.10;99.90;;;;;;4990290;28;20192;-60
2021/06/11 04:36:07;;;;;;;13.02;11.73;;;16.10;99.90;;;;;;4979412;28;20254;-59
2021/06/11 04:38:55;;;;;;;13.13;11.90;;;16.10;99.90;;;;;;4987265;28;20218;-64
2021/06/11 04:41:21;;;;;;;12.35;11.18;;;16.20;99.90;;;;;;4987777;28;20271;-63
2021/06/11 04:43:47;;;;;;;13.30;12.10;;;16.10;99.90;;;;;;4985926;28;20184;-63
2021/06/11 04:46:13;;;;;;;17.30;13.83;;;16.00;99.90;;;;;;4988760;28;20209;-65
2021/06/11 04:48:38;;;;;;;13.43;12.13;;;16.40;99.90;;;;;;4988345;28;20198;-67
2021/06/11 04:51:04;;;;;;;14.20;12.20;;;16.20;99.90;;;;;;4989033;28;20184;-65
2021/06/11 04:53:30;;;;;;;13.93;12.40;;;16.30;99.90;;;;;;4991194;28;20186;-64
2021/06/11 04:55:58;;;;;;;14.13;12.70;;;16.50;99.90;;;;;;4990153;28;20274;-63
2021/06/11 04:58:26;;;;;;;12.40;11.13;;;16.50;99.90;;;;;;4999545;28;20719;-64
2021/06/11 05:00:52;;;;;;;12.65;11.45;;;16.60;99.90;;;;;;4987634;28;20611;-65
2021/06/11 05:03:17;;;;;;;12.20;11.00;;;16.70;99.90;;;;;;4987984;28;20242;-59
2021/06/11 05:05:43;;;;;;;13.40;12.07;;;16.40;99.90;;;;;;4981285;28;20230;-65
2021/06/11 05:08:09;;;;;;;13.00;11.80;;;16.50;99.90;;;;;;4986080;28;20207;-65
2021/06/11 05:10:38;;;;;;;12.70;11.50;;;16.80;99.90;;;;;;4983493;28;20211;-63
2021/06/11 05:13:03;;;;;;;13.10;11.82;;;16.90;99.90;;;;;;4991919;28;20589;-61
2021/06/11 05:15:29;;;;;;;13.43;12.23;;;16.90;99.90;;;;;;4990464;28;20211;-62
2021/06/11 05:17:54;;;;;;;13.40;12.10;;;16.90;99.90;;;;;;4984806;28;20204;-62
2021/06/11 05:20:20;;;;;;;13.50;12.20;;;17.20;99.90;;;;;;4991417;28;20641;-67
2021/06/11 05:22:46;;;;;;;13.00;11.80;;;17.30;99.90;;;;;;4996322;28;20176;-66
2021/06/11 05:25:12;;;;;;;13.70;11.97;;;17.50;99.90;;;;;;4992166;28;20198;-57
2021/06/11 05:27:37;;;;;;;12.35;11.15;;;17.30;99.90;;;;;;4991011;28;20203;-57
2021/06/11 05:30:04;;;;;;;14.40;11.97;;;17.50;99.90;;;;;;4990306;28;20191;-57
2021/06/11 05:32:29;;;;;;;12.63;11.43;;;17.80;99.90;;;;;;4985265;28;20192;-57
2021/06/11 05:34:55;;;;;;;11.83;10.70;;;17.90;99.90;;;;;;4989629;28;20480;-57
2021/06/11 05:37:21;;;;;;;14.47;12.00;;;18.00;99.90;;;;;;4994439;28;20275;-57
2021/06/11 05:39:47;;;;;;;13.50;12.27;;;18.00;99.90;;;;;;4994258;28;20184;-58
2021/06/11 05:42:13;;;;;;;14.13;12.80;;;18.20;99.90;;;;;;4989804;28;20679;-57
2021/06/11 05:44:38;;;;;;;13.50;12.17;;;18.30;99.90;;;;;;4998830;28;20652;-57
2021/06/11 05:47:04;;;;;;;13.20;11.80;;;18.40;99.90;;;;;;4991665;28;20215;-57
2021/06/11 05:49:30;;;;;;;12.13;10.90;;;18.50;99.90;;;;;;4991230;28;20311;-58
2021/06/11 05:51:55;;;;;;;11.33;10.20;;;18.70;99.90;;;;;;4987922;28;20263;-58
2021/06/11 05:54:21;;;;;;;14.50;10.50;;;18.80;99.90;;;;;;4996948;28;20187;-58
2021/06/11 05:56:47;;;;;;;12.70;11.50;;;18.90;99.90;;;;;;4990715;28;20207;-57
2021/06/11 05:59:12;;;;;;;11.60;10.40;;;19.20;99.90;;;;;;4987986;28;20213;-57
2021/06/11 06:01:38;;;;;;;11.47;10.27;;;19.30;99.90;;;;;;4990770;28;20616;-56
2021/06/11 06:04:03;;;;;;;16.47;11.80;;;19.30;99.90;;;;;;4996954;28;20179;-57
2021/06/11 06:06:29;;;;;;;12.87;11.47;;;19.50;99.90;;;;;;4991007;28;20249;-58
2021/06/11 06:08:55;;;;;;;11.43;10.43;;;19.60;99.90;;;;;;4983421;28;20206;-59
2021/06/11 06:11:20;;;;;;;14.17;12.70;;;19.70;99.90;;;;;;4990275;28;21015;-58
2021/06/11 06:13:46;;;;;;;12.60;11.53;;;19.80;99.90;;;;;;4987589;28;20194;-58
2021/06/11 06:16:12;;;;;;;12.93;11.47;;;19.80;99.90;;;;;;4985569;28;20208;-59
2021/06/11 06:18:39;;;;;;;11.10;10.20;;;19.90;99.90;;;;;;4998635;28;20650;-58
2021/06/11 06:21:04;;;;;;;11.95;10.95;;;19.90;99.90;;;;;;4987941;28;20180;-58
2021/06/11 06:23:30;;;;;;;12.37;11.17;;;19.90;99.90;;;;;;4995314;28;20189;-65
2021/06/11 06:25:56;;;;;;;12.20;11.00;;;19.90;99.90;;;;;;4999770;28;20199;-60
2021/06/11 06:28:21;;;;;;;13.07;11.60;;;20.10;99.90;;;;;;4996824;28;20736;-60
2021/06/11 06:30:47;;;;;;;12.60;11.40;;;20.20;99.90;;;;;;4995629;28;20179;-59
2021/06/11 06:33:13;;;;;;;15.43;11.40;;;20.30;99.90;;;;;;4989283;28;20287;-59
2021/06/11 06:35:38;;;;;;;11.47;10.40;;;20.30;99.90;;;;;;4996828;28;20178;-59
2021/06/11 06:38:04;;;;;;;12.17;11.13;;;20.20;99.90;;;;;;4991631;28;20205;-59
2021/06/11 06:40:30;;;;;;;13.27;11.60;;;20.30;99.90;;;;;;4994789;28;20222;-59
2021/06/11 06:42:55;;;;;;;12.50;11.40;;;20.50;99.90;;;;;;4995514;28;20204;-59
2021/06/11 06:45:21;;;;;;;14.10;12.67;;;20.60;99.90;;;;;;4991733;28;20175;-59
2021/06/11 06:47:47;;;;;;;12.30;11.20;;;20.60;99.90;;;;;;4987396;28;20348;-59
2021/06/11 06:50:15;;;;;;;12.50;11.37;;;20.80;99.90;;;;;;4986075;28;20274;-58
2021/06/11 06:52:41;;;;;;;11.25;10.18;;;21.00;99.90;;;;;;4992884;28;20442;-58
2021/06/11 06:55:07;;;;;;;11.73;10.83;;;21.20;99.90;;;;;;4996417;28;20191;-56
2021/06/11 06:57:33;;;;;;;12.27;11.13;;;21.40;99.90;;;;;;4992202;28;20235;-57
2021/06/11 06:59:59;;;;;;;11.97;10.60;;;21.90;99.90;;;;;;4998334;28;20206;-57
2021/06/11 07:02:25;;;;;;;11.07;10.00;;;22.30;99.90;;;;;;4983836;28;20187;-58
2021/06/11 07:04:50;;;;;;;11.40;10.30;;;23.40;99.90;;;;;;4991718;28;20819;-58
2021/06/11 07:07:17;;;;;;;10.50;9.50;;;25.10;97.00;;;;;;4989947;28;20457;-60
2021/06/11 07:09:43;;;;;;;10.27;9.37;;;26.80;93.10;;;;;;5002915;28;20191;-60
2021/06/11 07:12:09;;;;;;;11.30;10.17;;;28.40;88.50;;;;;;4992481;28;20543;-60
2021/06/11 07:14:36;;;;;;;10.53;9.70;;;29.90;80.80;;;;;;4990672;28;20446;-60
2021/06/11 07:17:03;;;;;;;13.40;12.20;;;31.20;75.30;;;;;;4998916;28;20881;-60
2021/06/11 07:19:28;;;;;;;10.17;9.30;;;32.50;70.30;;;;;;4991755;28;20471;-60
2021/06/11 07:21:54;;;;;;;10.13;9.33;;;34.20;63.50;;;;;;4997368;28;20465;-60
2021/06/11 07:24:20;;;;;;;9.90;9.10;;;35.40;58.70;;;;;;4998438;28;20319;-59
2021/06/11 07:26:46;;;;;;;9.60;8.90;;;36.30;54.80;;;;;;4991361;28;20493;-59
2021/06/11 07:29:12;;;;;;;10.27;9.47;;;37.20;52.50;;;;;;4998578;28;20505;-59
2021/06/11 07:31:38;;;;;;;10.43;9.53;;;36.80;50.60;;;;;;4992321;28;20194;-59
2021/06/11 07:34:03;;;;;;;14.30;13.03;;;36.80;50.60;;;;;;5002757;28;20187;-60
2021/06/11 07:36:29;;;;;;;14.00;12.80;;;36.80;50.10;;;;;;4989503;28;20206;-62
2021/06/11 07:38:55;;;;;;;11.07;10.13;;;37.60;49.00;;;;;;4992268;28;20207;-60
2021/06/11 07:41:21;;;;;;;11.70;10.70;;;37.10;48.50;;;;;;4988354;28;20275;-59
2021/06/11 07:43:50;;;;;;;11.10;10.10;;;35.80;49.70;;;;;;4987946;28;20434;-59
2021/06/11 07:46:17;;;;;;;11.23;10.37;;;36.70;48.50;;;;;;4988713;28;20470;-60
2021/06/11 07:48:43;;;;;;;12.03;10.80;;;37.00;48.60;;;;;;5006509;28;20431;-60
2021/06/11 07:51:08;;;;;;;10.30;9.50;;;37.90;47.30;;;;;;4980932;28;20435;-58
2021/06/11 07:53:34;;;;;;;10.20;9.40;;;37.80;46.70;;;;;;4995904;28;20187;-58
2021/06/11 07:56:00;;;;;;;15.33;13.80;;;36.20;49.30;;;;;;4982215;28;20210;-58
2021/06/11 07:58:26;;;;;;;10.77;9.87;;;36.50;49.70;;;;;;4985678;28;20199;-58
2021/06/11 08:00:52;;;;;;;9.80;9.10;;;37.60;47.50;;;;;;4992664;28;20442;-56
2021/06/11 08:03:17;;;;;;;10.10;9.40;;;37.40;47.10;;;;;;4996330;28;20184;-57
2021/06/11 08:05:43;;;;;;;11.43;10.27;;;37.60;47.20;;;;;;4988420;28;20191;-57
2021/06/11 08:08:09;;;;;;;9.67;8.93;;;37.80;46.00;;;;;;4989113;28;20191;-57
2021/06/11 08:10:35;;;;;;;10.53;9.53;;;37.00;46.80;;;;;;4997661;28;20183;-57
2021/06/11 08:13:03;;;;;;;11.03;9.87;;;35.90;48.70;;;;;;4993679;28;20210;-56
2021/06/11 08:15:29;;;;;;;10.00;8.90;;;37.30;47.30;;;;;;4985805;28;20447;-57
2021/06/11 08:17:54;;;;;;;10.00;9.20;;;37.90;46.10;;;;;;4988322;28;21054;-57
2021/06/11 08:20:20;;;;;;;10.77;9.87;;;38.00;45.50;;;;;;4988618;28;20253;-56
2021/06/11 08:22:46;;;;;;;9.83;9.03;;;37.90;44.30;;;;;;4985033;28;20218;-56
2021/06/11 08:25:12;;;;;;;9.87;9.07;;;36.50;46.10;;;;;;4996004;28;20190;-56
2021/06/11 08:27:38;;;;;;;9.70;8.90;;;37.10;46.60;;;;;;4995542;28;20453;-59
2021/06/11 08:30:06;;;;;;;9.60;8.93;;;37.80;45.60;;;;;;4999373;28;20468;-58
2021/06/11 08:32:32;;;;;;;9.97;9.20;;;38.70;43.70;;;;;;4987640;28;20453;-59
2021/06/11 08:34:57;;;;;;;10.00;9.20;;;38.70;42.60;;;;;;5002845;28;20439;-59
2021/06/11 08:37:23;;;;;;;10.10;9.30;;;37.90;44.20;;;;;;4997727;28;20209;-60
2021/06/11 08:39:53;;;;;;;9.83;9.07;;;38.30;43.60;;;;;;4988984;28;20271;-57
2021/06/11 08:42:28;;;;;;;10.13;9.33;;;36.50;44.70;;;;;;4996106;28;20434;-59
2021/06/11 08:44:55;;;;;;;10.80;9.90;;;36.90;46.00;;;;;;5003440;28;20812;-59
2021/06/11 08:47:22;;;;;;;9.80;9.10;;;37.70;44.70;;;;;;4995002;28;20998;-59
2021/06/11 08:49:48;;;;;;;10.27;9.47;;;37.50;44.20;;;;;;4995898;28;20443;-60
2021/06/11 08:52:13;;;;;;;9.80;9.00;;;37.50;45.20;;;;;;4999048;28;20962;-61
2021/06/11 08:54:39;;;;;;;9.40;8.73;;;37.90;44.60;;;;;;4999472;28;20714;-60
2021/06/11 08:57:05;;;;;;;8.93;8.30;;;38.60;43.60;;;;;;4992143;28;20211;-57
2021/06/11 08:59:30;;;;;;;9.20;8.33;;;37.40;43.30;;;;;;4993176;28;20218;-60
2021/06/11 09:01:56;;;;;;;9.47;8.67;;;38.30;43.30;;;;;;4993379;28;20231;-59
2021/06/11 09:04:43;;;;;;;10.07;9.30;;;38.30;43.20;;;;;;4999621;28;20277;-58
2021/06/11 09:07:35;;;;;;;10.07;9.37;;;38.30;43.20;;;;;;4994539;28;20521;-59
2021/06/11 09:10:07;;;;;;;9.63;9.00;;;38.50;42.00;;;;;;4997398;28;20438;-59
2021/06/11 09:12:41;;;;;;;9.60;9.00;;;37.90;42.70;;;;;;4991145;28;20434;-59
2021/06/11 09:15:12;;;;;;;9.33;8.70;;;37.80;42.90;;;;;;4990730;28;20434;-59
2021/06/11 09:17:42;;;;;;;12.50;11.40;;;38.10;42.80;;;;;;4996076;28;20457;-57
2021/06/11 09:20:15;;;;;;;10.60;9.90;;;37.50;43.60;;;;;;5001511;28;20468;-57
2021/06/11 09:22:52;;;;;;;10.20;9.50;;;37.00;42.50;;;;;;4985007;28;20434;-57
2021/06/11 09:25:21;;;;;;;10.47;9.70;;;36.00;44.30;;;;;;4994403;28;20437;-56
2021/06/11 09:27:51;;;;;;;9.90;9.10;;;35.50;43.50;;;;;;5000730;28;20457;-57
2021/06/11 09:30:18;;;;;;;10.37;9.47;;;35.40;44.90;;;;;;5000509;28;20990;-56
2021/06/11 09:32:57;;;;;;;9.63;8.93;;;36.60;42.50;;;;;;4998439;28;20497;-56
2021/06/11 09:35:52;;;;;;;9.27;8.67;;;37.20;41.90;;;;;;4987063;28;20450;-56
2021/06/11 09:38:18;;;;;;;9.77;9.07;;;37.70;39.10;;;;;;4987274;28;20457;-58
2021/06/11 09:41:07;;;;;;;10.73;10.03;;;37.60;40.10;;;;;;5000629;28;20485;-57
2021/06/11 09:43:34;;;;;;;10.37;9.50;;;38.20;39.90;;;;;;4992486;28;20438;-58
2021/06/11 09:46:10;;;;;;;8.73;8.23;;;38.70;39.00;;;;;;4992327;28;20469;-58
2021/06/11 09:48:40;;;;;;;10.67;9.80;;;38.90;39.40;;;;;;4996675;28;20489;-60
2021/06/11 09:51:23;;;;;;;10.90;10.10;;;38.80;38.50;;;;;;4990920;28;20467;-58
2021/06/11 09:53:49;;;;;;;10.90;10.20;;;39.00;38.30;;;;;;4990409;28;20939;-59
2021/06/11 09:56:33;;;;;;;11.20;10.40;;;38.30;38.30;;;;;;4993249;28;20458;-57
2021/06/11 09:59:01;;;;;;;11.30;10.50;;;39.00;37.50;;;;;;4990409;28;20465;-57
2021/06/11 10:01:26;;;;;;;11.40;10.67;;;37.70;38.40;;;;;;4989751;28;20434;-58
2021/06/11 10:03:57;;;;;;;10.30;9.60;;;36.80;40.70;;;;;;4988091;28;20935;-62
2021/06/11 10:06:23;;;;;;;11.53;10.60;;;35.90;41.90;;;;;;4992950;28;20203;-61
2021/06/11 10:08:50;;;;;;;11.20;10.40;;;34.40;44.90;;;;;;4990735;28;22710;-63
2021/06/11 10:11:20;;;;;;;12.30;11.40;;;33.80;46.80;;;;;;4998229;28;20257;-62
2021/06/11 10:13:47;;;;;;;12.87;11.67;;;33.60;46.30;;;;;;4989674;28;20796;-61
2021/06/11 10:16:15;;;;;;;13.47;10.57;;;33.60;47.00;;;;;;4992655;28;20977;-61
2021/06/11 10:18:40;;;;;;;11.83;10.93;;;34.80;45.20;;;;;;4992732;28;20582;-61
2021/06/11 10:21:07;;;;;;;10.37;9.67;;;35.70;44.30;;;;;;4997054;28;20442;-61
2021/06/11 10:23:35;;;;;;;12.00;11.00;;;36.60;42.80;;;;;;4991620;28;20439;-62
2021/06/11 10:26:04;;;;;;;11.83;10.93;;;37.30;40.60;;;;;;4996761;28;20950;-61
2021/06/11 10:28:44;;;;;;;11.17;10.30;;;37.60;40.30;;;;;;4996799;28;20538;-62
2021/06/11 10:31:15;;;;;;;12.00;11.17;;;37.30;39.60;;;;;;4992006;28;20472;-61
2021/06/11 10:33:43;;;;;;;11.10;10.30;;;37.80;39.20;;;;;;4989277;28;20553;-63
2021/06/11 10:38:55;;;;;;;11.93;11.10;;;37.60;38.90;;;;;;4986866;28;20788;-58
2021/06/11 10:41:22;;;;;;;12.90;12.00;;;37.50;38.60;;;;;;4995682;28;20438;-60
2021/06/11 10:43:49;;;;;;;11.60;10.80;;;37.60;38.80;;;;;;4992123;28;20500;-61
2021/06/11 10:46:24;;;;;;;10.93;10.23;;;38.20;38.30;;;;;;4999865;28;21045;-60
2021/06/11 10:48:56;;;;;;;10.93;10.10;;;38.10;37.50;;;;;;4989749;28;20441;-60
2021/06/11 10:51:43;;;;;;;10.40;9.70;;;37.30;38.40;;;;;;4995444;28;21006;-60
2021/06/11 10:54:23;;;;;;;9.87;9.00;;;37.30;39.90;;;;;;4990474;28;20450;-58
2021/06/11 10:56:59;;;;;;;11.00;10.00;;;38.20;38.00;;;;;;4990432;28;20521;-57
2021/06/11 10:59:39;;;;;;;11.10;10.30;;;38.30;37.20;;;;;;4992017;28;20508;-58
2021/06/11 11:02:06;;;;;;;11.80;11.00;;;38.00;37.20;;;;;;4993775;28;21010;-57
2021/06/11 11:04:37;;;;;;;11.50;10.80;;;37.50;38.30;;;;;;4993459;28;21039;-57
2021/06/11 11:07:23;;;;;;;11.70;10.80;;;36.20;39.20;;;;;;5001182;28;20654;-58
2021/06/11 11:10:01;;;;;;;10.73;9.90;;;36.70;39.00;;;;;;4988549;28;20442;-57
2021/06/11 11:12:29;;;;;;;11.60;10.60;;;37.30;39.30;;;;;;4997492;28;20568;-57
2021/06/11 11:15:02;;;;;;;12.03;11.17;;;37.60;38.20;;;;;;4987512;28;20438;-55
2021/06/11 11:17:29;;;;;;;11.60;10.80;;;37.80;38.40;;;;;;4992622;28;20468;-55
2021/06/11 11:19:54;;;;;;;24.37;22.23;;;37.60;38.10;;;;;;5005496;28;20457;-60
2021/06/11 11:22:37;;;;;;;11.00;10.30;;;37.10;39.40;;;;;;4991388;28;20979;-60
2021/06/11 11:25:13;;;;;;;12.00;11.20;;;36.20;40.50;;;;;;4993461;28;20563;-57
2021/06/11 11:27:41;;;;;;;11.60;10.80;;;35.20;41.80;;;;;;4986586;28;20450;-58
2021/06/11 11:30:07;;;;;;;12.40;11.40;;;34.10;43.50;;;;;;5000467;28;21102;-60
2021/06/11 11:32:32;;;;;;;11.37;10.57;;;33.10;45.20;;;;;;4996594;28;20443;-60
2021/06/11 11:34:59;;;;;;;12.30;11.30;;;32.30;46.40;;;;;;4987578;28;20434;-60
2021/06/11 11:37:25;;;;;;;12.50;11.60;;;32.30;46.20;;;;;;4989453;28;20204;-60
2021/06/11 11:39:50;;;;;;;12.20;11.03;;;32.50;46.20;;;;;;4989160;28;20466;-60
2021/06/11 11:42:16;;;;;;;12.97;12.07;;;32.50;46.40;;;;;;5003692;28;20186;-58
2021/06/11 11:44:42;;;;;;;11.70;10.90;;;32.20;46.60;;;;;;4996639;28;20183;-59
2021/06/11 11:47:08;;;;;;;11.70;10.80;;;31.90;47.40;;;;;;5003286;28;20575;-59
2021/06/11 11:49:34;;;;;;;11.37;10.23;;;31.60;48.10;;;;;;5003827;28;20845;-57
2021/06/11 11:52:01;;;;;;;10.90;10.00;;;31.30;49.10;;;;;;4997314;28;20448;-58
2021/06/11 11:54:28;;;;;;;11.17;10.27;;;31.40;48.80;;;;;;4990439;28;20816;-58
2021/06/11 11:56:54;;;;;;;11.20;10.40;;;31.30;48.50;;;;;;4997557;28;20463;-58
2021/06/11 11:59:20;;;;;;;11.97;11.07;;;31.10;48.90;;;;;;4993484;28;20456;-60
2021/06/11 12:01:45;;;;;;;11.93;10.93;;;30.60;49.60;;;;;;4989769;28;20357;-59
2021/06/11 12:04:13;;;;;;;10.70;9.90;;;30.10;51.00;;;;;;5000244;28;20222;-60
2021/06/11 12:06:40;;;;;;;10.77;9.87;;;30.10;50.50;;;;;;4994153;28;20711;-59
2021/06/11 12:09:06;;;;;;;11.03;10.23;;;30.00;50.70;;;;;;4996953;28;20438;-57
2021/06/11 12:11:32;;;;;;;10.40;9.57;;;29.90;49.80;;;;;;5001685;28;20492;-58
2021/06/11 12:13:57;;;;;;;10.50;9.60;;;29.90;50.80;;;;;;4993895;28;20233;-58
2021/06/11 12:16:23;;;;;;;10.83;9.93;;;29.60;50.80;;;;;;4989306;28;20244;-58
2021/06/11 12:18:49;;;;;;;9.43;8.73;;;29.50;51.00;;;;;;4987950;28;20201;-58
2021/06/11 12:21:15;;;;;;;8.73;8.03;;;29.50;50.60;;;;;;4991133;28;20448;-61
2021/06/11 12:23:40;;;;;;;10.20;9.30;;;29.40;49.50;;;;;;4990002;28;20198;-60
2021/06/11 12:26:06;;;;;;;9.83;9.10;;;29.50;49.90;;;;;;4981072;28;20234;-61
2021/06/11 12:28:32;;;;;;;8.33;7.73;;;29.40;49.70;;;;;;5006760;28;20266;-61
2021/06/11 12:30:59;;;;;;;8.20;7.60;;;29.50;49.40;;;;;;4993022;28;20450;-61
2021/06/11 12:33:24;;;;;;;9.73;8.93;;;29.60;48.50;;;;;;4996990;28;20293;-61
2021/06/11 12:35:50;;;;;;;7.80;7.20;;;29.50;49.10;;;;;;4993976;28;20539;-61
2021/06/11 12:38:17;;;;;;;7.60;7.00;;;29.40;47.30;;;;;;4986100;28;20252;-59
2021/06/11 12:40:48;;;;;;;8.53;8.00;;;29.10;44.80;;;;;;5000615;28;20181;-60